sensor_id;sensor_type;location;lat;lon;timestamp;pressure;altitude;pressure_sealevel;temperature;humidity
62617;BME280;62539;51.190;6.808;2023-07-20T00:01:25;101094.75;;;23.14;51.17
62617;BME280;62539;51.190;6.808;2023-07-20T00:03:50;101080.75;;;23.12;51.45
62617;BME280;62539;51.190;6.808;2023-07-20T00:06:26;101092.34;;;23.09;51.69
62617;BME280;62539;51.190;6.808;2023-07-20T00:08:56;101085.34;;;23.08;51.15
62617;BME280;62539;51.190;6.808;2023-07-20T00:11:26;101083.63;;;23.07;51.33
62617;BME280;62539;51.190;6.808;2023-07-20T00:13:52;101086.44;;;23.04;51.56
62617;BME280;62539;51.190;6.808;2023-07-20T00:16:18;101082.06;;;23.03;51.62
62617;BME280;62539;51.190;6.808;2023-07-20T00:18:44;101080.38;;;23.02;51.52
62617;BME280;62539;51.190;6.808;2023-07-20T00:21:09;101083.94;;;23.01;51.65
62617;BME280;62539;51.190;6.808;2023-07-20T00:23:35;101092.81;;;23.00;51.68
62617;BME280;62539;51.190;6.808;2023-07-20T00:26:00;101089.44;;;22.96;51.43
62617;BME280;62539;51.190;6.808;2023-07-20T00:28:26;101091.25;;;22.96;51.72
62617;BME280;62539;51.190;6.808;2023-07-20T00:30:51;101086.88;;;22.95;51.88
62617;BME280;62539;51.190;6.808;2023-07-20T00:33:17;101093.09;;;22.94;51.87
62617;BME280;62539;51.190;6.808;2023-07-20T00:35:44;101076.34;;;22.93;51.88
62617;BME280;62539;51.190;6.808;2023-07-20T00:38:09;101080.03;;;22.90;52.04
62617;BME280;62539;51.190;6.808;2023-07-20T00:40:39;101082.66;;;22.90;51.74
62617;BME280;62539;51.190;6.808;2023-07-20T00:43:05;101079.25;;;22.88;51.80
62617;BME280;62539;51.190;6.808;2023-07-20T00:45:33;101079.25;;;22.88;52.20
62617;BME280;62539;51.190;6.808;2023-07-20T00:48:01;101082.81;;;22.87;51.99
62617;BME280;62539;51.190;6.808;2023-07-20T00:50:28;101093.41;;;22.87;51.89
62617;BME280;62539;51.190;6.808;2023-07-20T00:52:57;101096.97;;;22.86;51.94
62617;BME280;62539;51.190;6.808;2023-07-20T00:55:24;101087.31;;;22.85;52.02
62617;BME280;62539;51.190;6.808;2023-07-20T00:57:50;101096.19;;;22.84;52.06
62617;BME280;62539;51.190;6.808;2023-07-20T01:00:16;101090.97;;;22.83;51.82
62617;BME280;62539;51.190;6.808;2023-07-20T01:02:43;101083.94;;;22.82;52.26
62617;BME280;62539;51.190;6.808;2023-07-20T01:05:08;101094.53;;;22.82;52.33
62617;BME280;62539;51.190;6.808;2023-07-20T01:07:37;101093.69;;;22.81;52.10
62617;BME280;62539;51.190;6.808;2023-07-20T01:12:43;101090.25;;;22.79;52.05
62617;BME280;62539;51.190;6.808;2023-07-20T01:15:12;101086.84;;;22.77;52.10
62617;BME280;62539;51.190;6.808;2023-07-20T01:17:38;101089.47;;;22.77;52.50
62617;BME280;62539;51.190;6.808;2023-07-20T01:20:06;101087.75;;;22.76;52.36
62617;BME280;62539;51.190;6.808;2023-07-20T01:26:02;101087.19;;;22.69;52.92
62617;BME280;62539;51.190;6.808;2023-07-20T01:28:45;101079.19;;;22.71;52.66
62617;BME280;62539;51.190;6.808;2023-07-20T01:31:31;101091.63;;;22.69;53.02
62617;BME280;62539;51.190;6.808;2023-07-20T01:34:02;101090.84;;;22.67;52.69
62617;BME280;62539;51.190;6.808;2023-07-20T01:36:34;101093.47;;;22.67;53.14
62617;BME280;62539;51.190;6.808;2023-07-20T01:39:02;101089.13;;;22.66;53.02
62617;BME280;62539;51.190;6.808;2023-07-20T01:41:30;101085.69;;;22.64;53.04
62617;BME280;62539;51.190;6.808;2023-07-20T01:43:59;101083.06;;;22.64;53.40
62617;BME280;62539;51.190;6.808;2023-07-20T01:46:24;101076.03;;;22.63;53.18
62617;BME280;62539;51.190;6.808;2023-07-20T01:48:50;101079.63;;;22.61;53.27
62617;BME280;62539;51.190;6.808;2023-07-20T01:51:15;101080.56;;;22.60;53.59
62617;BME280;62539;51.190;6.808;2023-07-20T01:53:42;101085.84;;;22.60;53.63
62617;BME280;62539;51.190;6.808;2023-07-20T01:56:08;101081.47;;;22.59;53.38
62617;BME280;62539;51.190;6.808;2023-07-20T01:58:33;101080.69;;;22.57;53.60
62617;BME280;62539;51.190;6.808;2023-07-20T02:01:00;101078.09;;;22.56;53.36
62617;BME280;62539;51.190;6.808;2023-07-20T02:03:26;101071.97;;;22.55;53.74
62617;BME280;62539;51.190;6.808;2023-07-20T02:05:51;101071.09;;;22.55;53.73
62617;BME280;62539;51.190;6.808;2023-07-20T02:08:17;101068.53;;;22.53;53.96
62617;BME280;62539;51.190;6.808;2023-07-20T02:10:46;101070.31;;;22.53;53.70
62617;BME280;62539;51.190;6.808;2023-07-20T02:13:12;101074.81;;;22.51;53.96
62617;BME280;62539;51.190;6.808;2023-07-20T02:15:37;101073.09;;;22.50;53.99
62617;BME280;62539;51.190;6.808;2023-07-20T02:18:03;101064.38;;;22.48;53.74
62617;BME280;62539;51.190;6.808;2023-07-20T02:20:28;101075.06;;;22.46;53.94
62617;BME280;62539;51.190;6.808;2023-07-20T02:22:54;101061.00;;;22.44;53.74
62617;BME280;62539;51.190;6.808;2023-07-20T02:25:19;101067.22;;;22.43;53.98
62617;BME280;62539;51.190;6.808;2023-07-20T02:27:45;101069.94;;;22.41;54.38
62617;BME280;62539;51.190;6.808;2023-07-20T02:30:10;101075.31;;;22.40;54.04
62617;BME280;62539;51.190;6.808;2023-07-20T02:32:36;101080.63;;;22.38;54.31
62617;BME280;62539;51.190;6.808;2023-07-20T02:35:02;101085.94;;;22.38;54.51
62617;BME280;62539;51.190;6.808;2023-07-20T02:37:28;101082.50;;;22.36;54.45
62617;BME280;62539;51.190;6.808;2023-07-20T02:39:54;101086.94;;;22.36;54.36
62617;BME280;62539;51.190;6.808;2023-07-20T02:42:20;101082.63;;;22.33;54.23
62617;BME280;62539;51.190;6.808;2023-07-20T02:44:48;101083.50;;;22.34;54.44
62617;BME280;62539;51.190;6.808;2023-07-20T02:47:14;101087.09;;;22.32;54.33
62617;BME280;62539;51.190;6.808;2023-07-20T02:49:39;101086.28;;;22.30;54.10
62617;BME280;62539;51.190;6.808;2023-07-20T02:52:05;101088.94;;;22.30;54.40
62617;BME280;62539;51.190;6.808;2023-07-20T02:54:30;101081.06;;;22.29;54.40
62617;BME280;62539;51.190;6.808;2023-07-20T02:56:56;101076.66;;;22.29;54.36
62617;BME280;62539;51.190;6.808;2023-07-20T02:59:21;101080.22;;;22.28;54.52
62617;BME280;62539;51.190;6.808;2023-07-20T03:01:47;101086.44;;;22.27;54.58
62617;BME280;62539;51.190;6.808;2023-07-20T03:04:12;101089.06;;;22.27;54.91
62617;BME280;62539;51.190;6.808;2023-07-20T03:06:38;101080.34;;;22.25;54.93
62617;BME280;62539;51.190;6.808;2023-07-20T03:09:04;101082.22;;;22.23;55.05
62617;BME280;62539;51.190;6.808;2023-07-20T03:11:30;101078.78;;;22.21;54.77
62617;BME280;62539;51.190;6.808;2023-07-20T03:13:55;101085.00;;;22.20;54.90
62617;BME280;62539;51.190;6.808;2023-07-20T03:16:21;101086.84;;;22.18;54.75
62617;BME280;62539;51.190;6.808;2023-07-20T03:18:50;101095.69;;;22.17;54.77
62617;BME280;62539;51.190;6.808;2023-07-20T03:21:16;101095.75;;;22.15;55.07
62617;BME280;62539;51.190;6.808;2023-07-20T03:23:42;101099.31;;;22.14;55.24
62617;BME280;62539;51.190;6.808;2023-07-20T03:26:08;101083.56;;;22.13;54.95
62617;BME280;62539;51.190;6.808;2023-07-20T03:28:35;101087.13;;;22.12;55.14
62617;BME280;62539;51.190;6.808;2023-07-20T03:31:01;101096.91;;;22.10;55.40
62617;BME280;62539;51.190;6.808;2023-07-20T03:33:29;101100.47;;;22.09;55.08
62617;BME280;62539;51.190;6.808;2023-07-20T03:35:57;101094.41;;;22.07;55.42
62617;BME280;62539;51.190;6.808;2023-07-20T03:38:23;101091.75;;;22.07;55.31
62617;BME280;62539;51.190;6.808;2023-07-20T03:40:57;101091.88;;;22.03;55.23
62617;BME280;62539;51.190;6.808;2023-07-20T03:43:24;101099.81;;;22.03;55.46
62617;BME280;62539;51.190;6.808;2023-07-20T03:45:51;101105.09;;;22.03;55.39
62617;BME280;62539;51.190;6.808;2023-07-20T03:48:20;101100.75;;;22.02;55.54
62617;BME280;62539;51.190;6.808;2023-07-20T03:50:48;101104.31;;;22.01;55.33
62617;BME280;62539;51.190;6.808;2023-07-20T03:53:15;101112.22;;;22.01;55.34
62617;BME280;62539;51.190;6.808;2023-07-20T03:55:45;101111.34;;;22.01;55.39
62617;BME280;62539;51.190;6.808;2023-07-20T03:58:12;101112.28;;;22.00;55.48
62617;BME280;62539;51.190;6.808;2023-07-20T04:00:38;101117.56;;;22.00;55.56
62617;BME280;62539;51.190;6.808;2023-07-20T04:03:04;101121.09;;;22.00;55.55
62617;BME280;62539;51.190;6.808;2023-07-20T04:05:30;101111.44;;;21.99;55.36
62617;BME280;62539;51.190;6.808;2023-07-20T04:07:55;101117.66;;;21.98;55.58
62617;BME280;62539;51.190;6.808;2023-07-20T04:10:21;101115.00;;;21.98;55.41
62617;BME280;62539;51.190;6.808;2023-07-20T04:12:46;101114.94;;;22.00;55.88
62617;BME280;62539;51.190;6.808;2023-07-20T04:15:12;101116.72;;;21.99;55.58
62617;BME280;62539;51.190;6.808;2023-07-20T04:17:39;101122.00;;;21.99;55.66
62617;BME280;62539;51.190;6.808;2023-07-20T04:20:06;101126.38;;;22.00;55.25
62617;BME280;62539;51.190;6.808;2023-07-20T04:22:33;101128.09;;;22.01;55.56
62617;BME280;62539;51.190;6.808;2023-07-20T04:24:58;101118.44;;;22.00;55.36
62617;BME280;62539;51.190;6.808;2023-07-20T04:27:23;101114.88;;;22.01;55.55
62617;BME280;62539;51.190;6.808;2023-07-20T04:29:49;101120.16;;;22.01;55.63
62617;BME280;62539;51.190;6.808;2023-07-20T04:32:14;101121.88;;;22.02;55.73
62617;BME280;62539;51.190;6.808;2023-07-20T04:34:40;101126.22;;;22.03;55.56
62617;BME280;62539;51.190;6.808;2023-07-20T04:37:05;101128.88;;;22.03;55.44
62617;BME280;62539;51.190;6.808;2023-07-20T04:39:31;101135.88;;;22.05;55.34
62617;BME280;62539;51.190;6.808;2023-07-20T04:41:57;101126.16;;;22.05;55.27
62617;BME280;62539;51.190;6.808;2023-07-20T04:44:23;101135.00;;;22.04;55.22
62617;BME280;62539;51.190;6.808;2023-07-20T04:46:48;101132.31;;;22.06;55.65
62617;BME280;62539;51.190;6.808;2023-07-20T04:49:13;101141.94;;;22.07;55.57
62617;BME280;62539;51.190;6.808;2023-07-20T04:51:39;101136.72;;;22.05;55.66
62617;BME280;62539;51.190;6.808;2023-07-20T04:54:05;101139.31;;;22.07;55.60
62617;BME280;62539;51.190;6.808;2023-07-20T04:56:30;101146.31;;;22.08;55.21
62617;BME280;62539;51.190;6.808;2023-07-20T04:58:56;101142.75;;;22.09;55.60
62617;BME280;62539;51.190;6.808;2023-07-20T05:01:22;101132.19;;;22.09;55.53
62617;BME280;62539;51.190;6.808;2023-07-20T05:03:48;101142.66;;;22.10;55.29
62617;BME280;62539;51.190;6.808;2023-07-20T05:06:14;101141.72;;;22.11;55.56
62617;BME280;62539;51.190;6.808;2023-07-20T05:08:40;101137.31;;;22.12;55.33
62617;BME280;62539;51.190;6.808;2023-07-20T05:11:06;101135.47;;;22.14;55.49
62617;BME280;62539;51.190;6.808;2023-07-20T05:13:32;101128.38;;;22.14;55.37
62617;BME280;62539;51.190;6.808;2023-07-20T05:15:58;101137.19;;;22.15;55.42
62617;BME280;62539;51.190;6.808;2023-07-20T05:18:24;101141.47;;;22.17;55.50
62617;BME280;62539;51.190;6.808;2023-07-20T05:20:50;101137.91;;;22.18;55.19
62617;BME280;62539;51.190;6.808;2023-07-20T05:23:19;101142.19;;;22.21;55.09
62617;BME280;62539;51.190;6.808;2023-07-20T05:25:57;101149.19;;;22.22;55.18
62617;BME280;62539;51.190;6.808;2023-07-20T05:28:24;101146.44;;;22.25;55.27
62617;BME280;62539;51.190;6.808;2023-07-20T05:30:51;101140.22;;;22.26;55.35
62617;BME280;62539;51.190;6.808;2023-07-20T05:33:17;101140.13;;;22.28;55.33
62617;BME280;62539;51.190;6.808;2023-07-20T05:35:44;101145.28;;;22.31;55.12
62617;BME280;62539;51.190;6.808;2023-07-20T05:38:09;101141.78;;;22.30;54.72
62617;BME280;62539;51.190;6.808;2023-07-20T05:40:37;101142.59;;;22.32;55.04
62617;BME280;62539;51.190;6.808;2023-07-20T05:43:05;101143.38;;;22.35;55.06
62617;BME280;62539;51.190;6.808;2023-07-20T05:45:30;101147.72;;;22.36;55.31
62617;BME280;62539;51.190;6.808;2023-07-20T05:47:56;101148.53;;;22.38;55.20
62617;BME280;62539;51.190;6.808;2023-07-20T05:50:21;101146.66;;;22.40;55.24
62617;BME280;62539;51.190;6.808;2023-07-20T05:52:46;101150.09;;;22.42;54.93
62617;BME280;62539;51.190;6.808;2023-07-20T05:55:13;101150.88;;;22.44;55.16
62617;BME280;62539;51.190;6.808;2023-07-20T05:57:38;101154.34;;;22.46;54.90
62617;BME280;62539;51.190;6.808;2023-07-20T06:00:08;101152.41;;;22.50;54.64
62617;BME280;62539;51.190;6.808;2023-07-20T06:02:35;101150.56;;;22.52;55.00
62617;BME280;62539;51.190;6.808;2023-07-20T06:05:00;101165.44;;;22.54;54.99
62617;BME280;62539;51.190;6.808;2023-07-20T06:07:26;101167.03;;;22.58;54.74
62617;BME280;62539;51.190;6.808;2023-07-20T06:09:51;101160.72;;;22.61;54.78
62617;BME280;62539;51.190;6.808;2023-07-20T06:12:17;101159.72;;;22.64;54.38
62617;BME280;62539;51.190;6.808;2023-07-20T06:14:42;101164.09;;;22.65;54.44
62617;BME280;62539;51.190;6.808;2023-07-20T06:17:08;101168.31;;;22.69;54.21
62617;BME280;62539;51.190;6.808;2023-07-20T06:19:33;101169.94;;;22.71;54.58
62617;BME280;62539;51.190;6.808;2023-07-20T06:21:59;101174.31;;;22.72;54.65
62617;BME280;62539;51.190;6.808;2023-07-20T06:24:24;101179.44;;;22.75;54.19
62617;BME280;62539;51.190;6.808;2023-07-20T06:26:50;101186.31;;;22.80;54.39
62617;BME280;62539;51.190;6.808;2023-07-20T06:29:15;101186.25;;;22.81;54.15
62617;BME280;62539;51.190;6.808;2023-07-20T06:31:41;101187.91;;;22.84;54.35
62617;BME280;62539;51.190;6.808;2023-07-20T06:34:06;101175.47;;;22.86;53.90
62617;BME280;62539;51.190;6.808;2023-07-20T06:36:31;101185.06;;;22.88;54.24
62617;BME280;62539;51.190;6.808;2023-07-20T06:38:57;101177.91;;;22.90;54.16
62617;BME280;62539;51.190;6.808;2023-07-20T06:41:22;101168.91;;;22.95;54.00
62617;BME280;62539;51.190;6.808;2023-07-20T06:43:48;101174.03;;;22.98;53.78
62617;BME280;62539;51.190;6.808;2023-07-20T06:46:13;101178.31;;;23.00;53.90
62617;BME280;62539;51.190;6.808;2023-07-20T06:48:39;101182.53;;;23.04;53.77
62617;BME280;62539;51.190;6.808;2023-07-20T06:51:05;101179.81;;;23.06;53.58
62617;BME280;62539;51.190;6.808;2023-07-20T06:53:31;101188.47;;;23.10;53.71
62617;BME280;62539;51.190;6.808;2023-07-20T06:55:56;101183.03;;;23.13;53.54
62617;BME280;62539;51.190;6.808;2023-07-20T06:58:23;101180.22;;;23.16;53.43
62617;BME280;62539;51.190;6.808;2023-07-20T07:00:48;101186.25;;;23.19;53.07
62617;BME280;62539;51.190;6.808;2023-07-20T07:03:14;101188.63;;;23.26;53.10
62617;BME280;62539;51.190;6.808;2023-07-20T07:05:39;101186.53;;;23.32;53.00
62617;BME280;62539;51.190;6.808;2023-07-20T07:08:05;101181.03;;;23.37;52.83
62617;BME280;62539;51.190;6.808;2023-07-20T07:10:31;101188.75;;;23.42;52.65
62617;BME280;62539;51.190;6.808;2023-07-20T07:12:56;101185.88;;;23.46;52.34
62617;BME280;62539;51.190;6.808;2023-07-20T07:15:22;101189.31;;;23.48;52.48
62617;BME280;62539;51.190;6.808;2023-07-20T07:17:47;101187.28;;;23.54;52.02
62617;BME280;62539;51.190;6.808;2023-07-20T07:20:13;101183.56;;;23.58;52.10
62617;BME280;62539;51.190;6.808;2023-07-20T07:22:38;101191.28;;;23.62;51.83
62617;BME280;62539;51.190;6.808;2023-07-20T07:25:04;101189.34;;;23.66;52.07
62617;BME280;62539;51.190;6.808;2023-07-20T07:27:30;101182.09;;;23.70;51.59
62617;BME280;62539;51.190;6.808;2023-07-20T07:29:55;101190.75;;;23.73;51.77
62617;BME280;62539;51.190;6.808;2023-07-20T07:32:21;101194.97;;;23.77;51.35
62617;BME280;62539;51.190;6.808;2023-07-20T07:34:46;101195.66;;;23.81;51.10
62617;BME280;62539;51.190;6.808;2023-07-20T07:37:13;101201.66;;;23.85;51.09
62617;BME280;62539;51.190;6.808;2023-07-20T07:39:38;101209.44;;;23.88;50.93
62617;BME280;62539;51.190;6.808;2023-07-20T07:42:05;101204.84;;;23.91;50.42
62617;BME280;62539;51.190;6.808;2023-07-20T07:44:31;101208.19;;;23.95;50.63
62617;BME280;62539;51.190;6.808;2023-07-20T07:46:56;101208.03;;;23.98;50.06
62617;BME280;62539;51.190;6.808;2023-07-20T07:49:22;101212.38;;;24.01;49.96
62617;BME280;62539;51.190;6.808;2023-07-20T07:51:48;101220.22;;;24.02;50.09
62617;BME280;62539;51.190;6.808;2023-07-20T07:54:13;101221.09;;;24.03;49.79
62617;BME280;62539;51.190;6.808;2023-07-20T07:56:39;101216.63;;;24.03;49.40
62617;BME280;62539;51.190;6.808;2023-07-20T07:59:04;101213.97;;;24.03;49.76
62617;BME280;62539;51.190;6.808;2023-07-20T08:01:29;101216.63;;;24.03;49.42
62617;BME280;62539;51.190;6.808;2023-07-20T08:03:55;101219.66;;;23.96;49.30
62617;BME280;62539;51.190;6.808;2023-07-20T08:06:21;101221.84;;;23.87;48.83
62617;BME280;62539;51.190;6.808;2023-07-20T08:08:47;101224.72;;;23.83;49.21
62617;BME280;62539;51.190;6.808;2023-07-20T08:11:12;101226.75;;;23.77;49.06
62617;BME280;62539;51.190;6.808;2023-07-20T08:13:38;101222.53;;;23.73;49.20
62617;BME280;62539;51.190;6.808;2023-07-20T08:16:03;101225.34;;;23.70;48.79
62617;BME280;62539;51.190;6.808;2023-07-20T08:18:29;101230.78;;;23.67;48.75
62617;BME280;62539;51.190;6.808;2023-07-20T08:20:54;101233.44;;;23.67;48.99
62617;BME280;62539;51.190;6.808;2023-07-20T08:23:20;101234.28;;;23.68;49.28
62617;BME280;62539;51.190;6.808;2023-07-20T08:25:46;101229.84;;;23.68;49.45
62617;BME280;62539;51.190;6.808;2023-07-20T08:28:13;101233.34;;;23.69;49.33
62617;BME280;62539;51.190;6.808;2023-07-20T08:30:42;101215.59;;;23.71;48.88
62617;BME280;62539;51.190;6.808;2023-07-20T08:33:09;101225.19;;;23.73;48.98
62617;BME280;62539;51.190;6.808;2023-07-20T08:35:36;101223.16;;;23.78;49.00
62617;BME280;62539;51.190;6.808;2023-07-20T08:38:02;101225.66;;;23.82;48.96
62617;BME280;62539;51.190;6.808;2023-07-20T08:40:27;101229.84;;;23.86;49.01
62617;BME280;62539;51.190;6.808;2023-07-20T08:42:54;101224.38;;;23.89;48.47
62617;BME280;62539;51.190;6.808;2023-07-20T08:45:22;101225.09;;;23.92;48.22
62617;BME280;62539;51.190;6.808;2023-07-20T08:47:48;101235.56;;;23.96;47.94
62617;BME280;62539;51.190;6.808;2023-07-20T08:50:16;101226.72;;;23.95;47.97
62617;BME280;62539;51.190;6.808;2023-07-20T08:52:41;101232.81;;;23.97;47.50
62617;BME280;62539;51.190;6.808;2023-07-20T08:55:07;101233.56;;;24.01;47.60
62617;BME280;62539;51.190;6.808;2023-07-20T08:57:33;101229.09;;;24.01;47.57
62617;BME280;62539;51.190;6.808;2023-07-20T09:00:02;101225.50;;;24.02;47.35
62617;BME280;62539;51.190;6.808;2023-07-20T09:02:39;101225.38;;;24.05;47.52
62617;BME280;62539;51.190;6.808;2023-07-20T09:05:08;101227.84;;;24.08;47.44
62617;BME280;62539;51.190;6.808;2023-07-20T09:07:35;101233.09;;;24.10;47.14
62617;BME280;62539;51.190;6.808;2023-07-20T09:10:01;101234.81;;;24.11;47.17
62617;BME280;62539;51.190;6.808;2023-07-20T09:12:32;101231.13;;;24.14;47.05
62617;BME280;62539;51.190;6.808;2023-07-20T09:15:00;101226.59;;;24.16;47.11
62617;BME280;62539;51.190;6.808;2023-07-20T09:17:26;101229.97;;;24.19;47.20
62617;BME280;62539;51.190;6.808;2023-07-20T09:19:52;101227.94;;;24.25;46.85
62617;BME280;62539;51.190;6.808;2023-07-20T09:22:17;101226.84;;;24.29;46.75
62617;BME280;62539;51.190;6.808;2023-07-20T09:24:44;101225.66;;;24.34;46.14
62617;BME280;62539;51.190;6.808;2023-07-20T09:27:09;101226.28;;;24.40;45.69
62617;BME280;62539;51.190;6.808;2023-07-20T09:29:47;101225.94;;;24.46;45.70
62617;BME280;62539;51.190;6.808;2023-07-20T09:32:18;101220.16;;;24.55;45.60
62617;BME280;62539;51.190;6.808;2023-07-20T09:34:46;101227.63;;;24.64;45.76
62617;BME280;62539;51.190;6.808;2023-07-20T09:37:11;101221.88;;;24.74;45.44
62617;BME280;62539;51.190;6.808;2023-07-20T09:39:44;101222.41;;;24.80;45.07
62617;BME280;62539;51.190;6.808;2023-07-20T09:42:11;101221.03;;;24.89;45.04
62617;BME280;62539;51.190;6.808;2023-07-20T09:44:42;101217.09;;;24.97;44.56
62617;BME280;62539;51.190;6.808;2023-07-20T09:47:09;101216.88;;;25.01;44.40
62617;BME280;62539;51.190;6.808;2023-07-20T09:49:42;101213.00;;;25.07;44.15
62617;BME280;62539;51.190;6.808;2023-07-20T09:52:11;101216.19;;;25.14;43.77
62617;BME280;62539;51.190;6.808;2023-07-20T09:54:40;101208.72;;;25.20;43.86
62617;BME280;62539;51.190;6.808;2023-07-20T09:57:07;101206.06;;;25.20;43.33
62617;BME280;62539;51.190;6.808;2023-07-20T09:59:34;101209.25;;;25.27;43.67
62617;BME280;62539;51.190;6.808;2023-07-20T10:02:02;101209.56;;;25.37;43.59
62617;BME280;62539;51.190;6.808;2023-07-20T10:04:34;101215.16;;;25.48;43.77
62617;BME280;62539;51.190;6.808;2023-07-20T10:07:05;101214.03;;;25.52;43.39
62617;BME280;62539;51.190;6.808;2023-07-20T10:09:39;101217.81;;;25.64;42.75
62617;BME280;62539;51.190;6.808;2023-07-20T10:12:07;101211.00;;;25.75;42.35
62617;BME280;62539;51.190;6.808;2023-07-20T10:14:38;101215.69;;;25.86;41.99
62617;BME280;62539;51.190;6.808;2023-07-20T10:17:11;101206.91;;;26.00;41.64
62617;BME280;62539;51.190;6.808;2023-07-20T10:19:47;101211.38;;;26.13;41.83
62617;BME280;62539;51.190;6.808;2023-07-20T10:22:25;101206.69;;;26.33;42.07
62617;BME280;62539;51.190;6.808;2023-07-20T10:24:54;101206.50;;;26.51;41.89
62617;BME280;62539;51.190;6.808;2023-07-20T10:27:21;101210.69;;;26.69;41.92
62617;BME280;62539;51.190;6.808;2023-07-20T10:29:47;101209.16;;;26.80;40.49
62617;BME280;62539;51.190;6.808;2023-07-20T10:32:16;101219.16;;;26.91;40.40
62617;BME280;62539;51.190;6.808;2023-07-20T10:34:42;101210.09;;;27.08;40.13
62617;BME280;62539;51.190;6.808;2023-07-20T10:37:07;101209.31;;;27.20;39.85
62617;BME280;62539;51.190;6.808;2023-07-20T10:39:33;101205.53;;;27.37;39.70
62617;BME280;62539;51.190;6.808;2023-07-20T10:42:06;101206.38;;;27.52;39.23
62617;BME280;62539;51.190;6.808;2023-07-20T10:44:33;101205.84;;;27.60;38.73
62617;BME280;62539;51.190;6.808;2023-07-20T10:47:03;101196.75;;;27.77;38.44
62617;BME280;62539;51.190;6.808;2023-07-20T10:49:34;101201.53;;;27.85;38.22
62617;BME280;62539;51.190;6.808;2023-07-20T10:52:05;101199.75;;;27.98;37.94
62617;BME280;62539;51.190;6.808;2023-07-20T10:56:58;101188.47;;;28.34;37.61
62617;BME280;62539;51.190;6.808;2023-07-20T10:59:47;101191.47;;;28.55;37.75
62617;BME280;62539;51.190;6.808;2023-07-20T11:02:13;101181.19;;;28.74;37.70
62617;BME280;62539;51.190;6.808;2023-07-20T11:04:42;101185.84;;;28.97;36.37
62617;BME280;62539;51.190;6.808;2023-07-20T11:07:09;101187.03;;;29.17;37.05
62617;BME280;62539;51.190;6.808;2023-07-20T11:09:36;101183.22;;;29.32;35.52
62617;BME280;62539;51.190;6.808;2023-07-20T11:12:12;101185.78;;;29.34;35.22
62617;BME280;62539;51.190;6.808;2023-07-20T11:14:56;101180.56;;;29.32;34.76
62617;BME280;62539;51.190;6.808;2023-07-20T11:17:30;101177.78;;;29.34;34.90
62617;BME280;62539;51.190;6.808;2023-07-20T11:19:57;101176.31;;;29.30;35.25
62617;BME280;62539;51.190;6.808;2023-07-20T11:22:26;101182.72;;;29.27;35.20
62617;BME280;62539;51.190;6.808;2023-07-20T11:24:55;101179.31;;;29.25;34.87
62617;BME280;62539;51.190;6.808;2023-07-20T11:27:21;101168.84;;;29.22;35.30
62617;BME280;62539;51.190;6.808;2023-07-20T11:29:47;101176.13;;;29.20;35.26
62617;BME280;62539;51.190;6.808;2023-07-20T11:32:20;101179.94;;;29.29;35.03
62617;BME280;62539;51.190;6.808;2023-07-20T11:34:47;101172.66;;;29.31;34.60
62617;BME280;62539;51.190;6.808;2023-07-20T11:37:13;101173.34;;;29.46;34.79
62617;BME280;62539;51.190;6.808;2023-07-20T11:39:39;101170.22;;;29.52;35.19
62617;BME280;62539;51.190;6.808;2023-07-20T11:42:05;101160.25;;;29.54;35.27
62617;BME280;62539;51.190;6.808;2023-07-20T11:44:32;101166.09;;;29.59;34.34
62617;BME280;62539;51.190;6.808;2023-07-20T11:47:07;101160.28;;;29.66;34.53
62617;BME280;62539;51.190;6.808;2023-07-20T11:49:40;101155.19;;;29.62;34.46
62617;BME280;62539;51.190;6.808;2023-07-20T11:52:11;101152.03;;;29.69;34.18
62617;BME280;62539;51.190;6.808;2023-07-20T11:54:41;101159.75;;;29.85;34.69
62617;BME280;62539;51.190;6.808;2023-07-20T11:57:07;101155.25;;;29.97;34.54
62617;BME280;62539;51.190;6.808;2023-07-20T11:59:55;101151.53;;;29.99;33.87
62617;BME280;62539;51.190;6.808;2023-07-20T12:02:29;101149.59;;;30.01;34.19
62617;BME280;62539;51.190;6.808;2023-07-20T12:04:55;101155.25;;;29.97;34.40
62617;BME280;62539;51.190;6.808;2023-07-20T12:07:22;101155.88;;;29.89;34.24
62617;BME280;62539;51.190;6.808;2023-07-20T12:10:10;101154.72;;;29.69;34.07
62617;BME280;62539;51.190;6.808;2023-07-20T12:12:41;101157.63;;;29.66;33.77
62617;BME280;62539;51.190;6.808;2023-07-20T12:17:51;101154.47;;;29.36;34.44
62617;BME280;62539;51.190;6.808;2023-07-20T12:20:34;101153.59;;;29.36;33.62
62617;BME280;62539;51.190;6.808;2023-07-20T12:23:02;101148.22;;;29.48;34.39
62617;BME280;62539;51.190;6.808;2023-07-20T12:25:39;101148.78;;;29.65;34.40
62617;BME280;62539;51.190;6.808;2023-07-20T12:28:09;101133.00;;;29.85;34.70
62617;BME280;62539;51.190;6.808;2023-07-20T12:30:37;101140.47;;;30.15;34.14
62617;BME280;62539;51.190;6.808;2023-07-20T12:33:04;101135.63;;;30.32;33.66
62617;BME280;62539;51.190;6.808;2023-07-20T12:35:30;101148.75;;;30.58;33.50
62617;BME280;62539;51.190;6.808;2023-07-20T12:37:56;101141.19;;;30.74;33.36
62617;BME280;62539;51.190;6.808;2023-07-20T12:40:22;101138.72;;;30.94;32.69
62617;BME280;62539;51.190;6.808;2023-07-20T12:42:48;101132.34;;;31.18;32.25
62617;BME280;62539;51.190;6.808;2023-07-20T12:45:13;101128.38;;;31.33;32.20
62617;BME280;62539;51.190;6.808;2023-07-20T12:47:39;101132.44;;;31.49;32.05
62617;BME280;62539;51.190;6.808;2023-07-20T12:50:06;101134.03;;;31.51;31.50
62617;BME280;62539;51.190;6.808;2023-07-20T12:52:35;101131.13;;;31.64;31.17
62617;BME280;62539;51.190;6.808;2023-07-20T12:55:03;101127.34;;;31.67;31.17
62617;BME280;62539;51.190;6.808;2023-07-20T12:57:28;101126.28;;;31.58;31.30
62617;BME280;62539;51.190;6.808;2023-07-20T12:59:54;101129.03;;;31.47;31.03
62617;BME280;62539;51.190;6.808;2023-07-20T13:02:19;101121.25;;;31.44;30.80